TimeEDT,TemperatureF,Dew PointF,Humidity,Sea Level PressureIn,VisibilityMPH,Wind Direction,Wind SpeedMPH,Gust SpeedMPH,PrecipitationIn,Events,Conditions,WindDirDegrees,DateUTC
12:17 AM,52.9,48.2,84,30.25,10.0,Calm,Calm,-,N/A,,Clear,0,2013-05-27 04:17:00
12:37 AM,51.6,47.8,87,30.25,10.0,Calm,Calm,-,N/A,,Clear,0,2013-05-27 04:37:00
12:57 AM,50.9,47.8,89,30.25,10.0,Calm,Calm,-,N/A,,Clear,0,2013-05-27 04:57:00
1:17 AM,51.6,48.7,90,30.25,10.0,Calm,Calm,-,N/A,,Clear,0,2013-05-27 05:17:00
1:37 AM,51.3,48.7,91,30.25,10.0,Calm,Calm,-,N/A,,Clear,0,2013-05-27 05:37:00
1:57 AM,50.2,49.3,97,30.25,10.0,Calm,Calm,-,N/A,,Clear,0,2013-05-27 05:57:00
2:17 AM,49.8,48.9,97,30.26,10.0,Calm,Calm,-,N/A,,Clear,0,2013-05-27 06:17:00
2:37 AM,50.4,49.3,96,30.26,10.0,Calm,Calm,-,N/A,,Clear,0,2013-05-27 06:37:00
2:57 AM,50.2,49.6,98,30.26,10.0,Calm,Calm,-,N/A,,Clear,0,2013-05-27 06:57:00
3:18 AM,49.5,48.7,97,30.25,10.0,Calm,Calm,-,N/A,,Clear,0,2013-05-27 07:18:00
3:38 AM,49.1,49.1,100,30.25,10.0,Calm,Calm,-,N/A,,Clear,0,2013-05-27 07:38:00
3:58 AM,47.8,47.7,99,30.26,10.0,Calm,Calm,-,N/A,,Clear,0,2013-05-27 07:58:00
4:18 AM,48.7,48.6,99,30.26,10.0,Calm,Calm,-,N/A,,Clear,0,2013-05-27 08:18:00
4:38 AM,49.5,47.5,93,30.26,10.0,ENE,5.8,-,N/A,,Clear,60,2013-05-27 08:38:00
4:58 AM,47.8,45.7,92,30.26,10.0,ENE,6.9,-,N/A,,Clear,60,2013-05-27 08:58:00
5:18 AM,48.7,45.0,87,30.27,10.0,Calm,Calm,-,N/A,,Clear,0,2013-05-27 09:18:00
5:38 AM,48.0,44.1,86,30.27,10.0,Calm,Calm,-,N/A,,Clear,0,2013-05-27 09:38:00
5:58 AM,48.6,44.2,85,30.28,10.0,Calm,Calm,-,N/A,,Clear,0,2013-05-27 09:58:00
6:18 AM,51.3,44.8,78,30.29,10.0,Calm,Calm,-,N/A,,Clear,0,2013-05-27 10:18:00
6:38 AM,52.9,46.6,79,30.29,10.0,Calm,Calm,-,N/A,,Clear,0,2013-05-27 10:38:00
6:50 AM,55.4,46.4,72,30.29,10.0,Calm,Calm,-,N/A,,Clear,0,2013-05-27 10:50:00
6:58 AM,56.1,47.1,72,30.29,10.0,Calm,Calm,-,N/A,,Clear,0,2013-05-27 10:58:00
7:18 AM,57.2,47.1,69,30.29,10.0,Calm,Calm,-,N/A,,Clear,0,2013-05-27 11:18:00
7:38 AM,59.0,47.5,66,30.29,10.0,Calm,Calm,-,N/A,,Clear,0,2013-05-27 11:38:00
7:42 AM,59.2,47.5,65,30.29,10.0,Calm,Calm,-,N/A,,Clear,0,2013-05-27 11:42:00
7:47 AM,59.0,46.4,63,30.30,10.0,Calm,Calm,-,N/A,,Clear,0,2013-05-27 11:47:00
8:53 AM,64.4,46.4,52,30.31,10.0,East,5.8,-,N/A,,Clear,90,2013-05-27 12:53:00
9:48 AM,68.0,46.4,46,30.31,10.0,East,4.6,-,N/A,,Clear,90,2013-05-27 13:48:00
10:52 AM,73.4,46.4,38,30.31,10.0,Calm,Calm,-,N/A,,Scattered Clouds,0,2013-05-27 14:52:00
11:50 AM,73.4,42.8,33,30.30,10.0,WSW,4.6,-,N/A,,Scattered Clouds,240,2013-05-27 15:50:00
12:50 PM,75.2,44.6,34,30.29,10.0,Calm,Calm,-,N/A,,Scattered Clouds,0,2013-05-27 16:50:00
1:50 PM,73.4,46.4,38,30.29,10.0,WSW,4.6,-,N/A,,Mostly Cloudy,250,2013-05-27 17:50:00
2:53 PM,73.4,48.2,41,30.26,10.0,NW,3.5,-,N/A,,Overcast,310,2013-05-27 18:53:00
3:50 PM,71.6,46.4,41,30.25,10.0,NW,4.6,-,N/A,,Overcast,310,2013-05-27 19:50:00
4:50 PM,71.6,46.4,41,30.23,10.0,Calm,Calm,-,N/A,,Overcast,0,2013-05-27 20:50:00
5:50 PM,69.8,48.2,46,30.23,10.0,Calm,Calm,-,N/A,,Overcast,0,2013-05-27 21:50:00
6:50 PM,68.0,48.2,49,30.23,10.0,Calm,Calm,-,N/A,,Overcast,0,2013-05-27 22:50:00
7:50 PM,66.2,50.0,56,30.23,10.0,SW,3.5,-,N/A,,Overcast,230,2013-05-27 23:50:00
8:50 PM,64.4,50.0,59,30.23,10.0,Calm,Calm,-,N/A,,Overcast,0,2013-05-28 00:50:00
11:00 PM,62.2,53.1,72,30.25,10.0,Calm,Calm,-,N/A,,Clear,0,2013-05-28 03:00:00
11:20 PM,62.1,52.3,70,30.25,10.0,Calm,Calm,-,N/A,,Clear,0,2013-05-28 03:20:00
11:40 PM,62.2,52.9,71,30.25,10.0,Calm,Calm,-,N/A,,Clear,0,2013-05-28 03:40:00